createdAt,value
2024-02-26T00:00:13.732Z,22.23
2024-02-26T00:02:41.386Z,18.97
2024-02-26T00:05:09.572Z,19.43
2024-02-26T00:07:36.590Z,23.43
2024-02-26T00:10:03.685Z,21.00
2024-02-26T00:12:30.817Z,20.13
2024-02-26T00:14:59.386Z,18.87
2024-02-26T00:17:26.453Z,21.10
2024-02-26T00:19:54.197Z,21.67
2024-02-26T00:22:21.200Z,19.17
2024-02-26T00:24:48.052Z,19.43
2024-02-26T00:27:15.092Z,21.10
2024-02-26T00:29:42.112Z,19.57
2024-02-26T00:32:09.143Z,18.33
2024-02-26T00:34:36.145Z,20.37
2024-02-26T00:37:03.529Z,20.57
2024-02-26T00:39:30.407Z,20.00
2024-02-26T00:41:58.109Z,18.73
2024-02-26T00:44:25.084Z,18.97
2024-02-26T00:46:52.028Z,17.57
2024-02-26T00:49:19.097Z,18.23
2024-02-26T00:51:45.983Z,19.17
2024-02-26T00:54:12.907Z,19.27
2024-02-26T00:56:39.830Z,18.23
2024-02-26T00:59:07.327Z,17.90
2024-02-26T01:01:34.281Z,19.13
2024-02-26T01:04:01.326Z,19.63
2024-02-26T01:06:28.442Z,18.87
2024-02-26T01:08:55.354Z,20.40
2024-02-26T01:11:22.351Z,17.40
2024-02-26T01:13:49.478Z,20.20
2024-02-26T01:16:16.506Z,18.50
2024-02-26T01:18:43.495Z,18.10
2024-02-26T01:21:10.578Z,17.20
2024-02-26T01:23:37.494Z,18.67
2024-02-26T01:26:05.830Z,17.10
2024-02-26T01:28:32.761Z,18.67
2024-02-26T01:31:00.918Z,18.00
2024-02-26T01:33:28.150Z,16.47
2024-02-26T01:35:55.205Z,16.00
2024-02-26T01:38:22.132Z,16.43
2024-02-26T01:40:49.009Z,16.23
2024-02-26T01:43:15.917Z,19.20
2024-02-26T01:45:42.775Z,17.77
2024-02-26T01:48:11.920Z,25.13
2024-02-26T01:50:39.452Z,27.33
2024-02-26T01:53:06.842Z,19.90
2024-02-26T01:55:34.663Z,21.07
2024-02-26T01:58:01.973Z,18.87
2024-02-26T02:00:29.163Z,16.00
2024-02-26T02:02:56.559Z,16.73
2024-02-26T02:05:24.633Z,16.07
2024-02-26T02:07:52.478Z,18.83
2024-02-26T02:10:23.804Z,17.63
2024-02-26T02:12:50.992Z,18.70
2024-02-26T02:15:18.097Z,18.87
2024-02-26T02:17:45.327Z,17.13
2024-02-26T02:20:35.383Z,17.63
2024-02-26T02:23:03.309Z,17.27
2024-02-26T02:25:30.314Z,18.17
2024-02-26T02:27:57.968Z,19.73
2024-02-26T02:30:30.427Z,17.60
2024-02-26T02:32:59.895Z,17.73
2024-02-26T02:35:27.046Z,18.40
2024-02-26T02:37:54.549Z,16.83
2024-02-26T02:40:21.432Z,20.20
2024-02-26T02:42:48.329Z,15.47
2024-02-26T02:45:15.298Z,18.43
2024-02-26T02:47:42.359Z,17.50
2024-02-26T02:50:09.930Z,18.70
2024-02-26T02:52:36.870Z,14.77
2024-02-26T02:55:04.043Z,18.60
2024-02-26T02:57:32.145Z,16.67
2024-02-26T02:59:59.132Z,15.37
2024-02-26T03:02:26.008Z,14.20
2024-02-26T03:04:53.204Z,16.20
2024-02-26T03:07:20.238Z,15.33
2024-02-26T03:09:47.131Z,14.47
2024-02-26T03:12:14.340Z,14.40
2024-02-26T03:14:41.283Z,13.60
2024-02-26T03:17:08.192Z,14.33
2024-02-26T03:19:35.177Z,14.93
2024-02-26T03:22:02.154Z,14.47
2024-02-26T03:24:29.300Z,13.77
2024-02-26T03:26:56.307Z,13.80
2024-02-26T03:29:23.279Z,15.27
2024-02-26T03:31:50.146Z,14.60
2024-02-26T03:34:18.698Z,13.57
2024-02-26T03:36:45.705Z,16.90
2024-02-26T03:39:12.872Z,13.37
2024-02-26T03:41:39.874Z,13.77
2024-02-26T03:44:06.779Z,13.17
2024-02-26T03:46:33.683Z,13.20
2024-02-26T03:49:00.720Z,13.23
2024-02-26T03:51:32.280Z,15.27
2024-02-26T03:53:59.776Z,12.50
2024-02-26T03:56:28.194Z,15.73
2024-02-26T03:58:55.428Z,11.80
2024-02-26T04:01:22.328Z,14.80
2024-02-26T04:03:49.292Z,13.77
2024-02-26T04:06:16.347Z,12.27
2024-02-26T04:08:43.323Z,13.17
2024-02-26T04:11:10.885Z,11.77
2024-02-26T04:13:40.908Z,11.70
2024-02-26T04:16:07.982Z,12.93
2024-02-26T04:18:35.144Z,11.80
2024-02-26T04:21:02.116Z,14.10
2024-02-26T04:23:28.996Z,13.63
2024-02-26T04:25:55.945Z,14.50
2024-02-26T04:28:22.905Z,11.83
2024-02-26T04:30:49.797Z,11.47
2024-02-26T04:33:16.802Z,16.87
2024-02-26T04:35:43.930Z,14.07
2024-02-26T04:38:10.862Z,12.43
2024-02-26T04:40:37.809Z,13.00
2024-02-26T04:43:04.954Z,11.60
2024-02-26T04:45:31.863Z,12.77
2024-02-26T04:47:58.806Z,12.90
2024-02-26T04:50:25.775Z,12.97
2024-02-26T04:52:52.677Z,11.50
2024-02-26T04:55:19.588Z,12.43
2024-02-26T04:57:46.459Z,13.17
2024-02-26T05:00:14.520Z,11.97
2024-02-26T05:02:41.481Z,12.97
2024-02-26T05:05:09.977Z,11.37
2024-02-26T05:07:43.173Z,11.10
2024-02-26T05:10:10.571Z,13.30
2024-02-26T05:12:37.701Z,12.63
2024-02-26T05:15:05.347Z,11.50
2024-02-26T05:17:32.262Z,12.63
2024-02-26T05:19:59.184Z,11.97
2024-02-26T05:22:26.112Z,11.13
2024-02-26T05:24:53.540Z,11.37
2024-02-26T05:27:20.656Z,12.33
2024-02-26T05:29:47.696Z,11.90
2024-02-26T05:32:14.617Z,12.30
2024-02-26T05:34:42.502Z,11.53
2024-02-26T05:37:09.508Z,11.97
2024-02-26T05:39:36.593Z,11.70
2024-02-26T05:42:04.182Z,11.07
2024-02-26T05:44:31.126Z,13.13
2024-02-26T05:46:57.999Z,13.53
2024-02-26T05:49:25.019Z,12.83
2024-02-26T05:51:51.988Z,11.90
2024-02-26T05:54:19.022Z,14.93
2024-02-26T05:56:45.971Z,11.57
2024-02-26T05:59:12.943Z,13.20
2024-02-26T06:01:39.815Z,12.67
2024-02-26T06:04:06.851Z,12.30
2024-02-26T06:06:34.048Z,14.20
2024-02-26T06:09:01.181Z,12.57
2024-02-26T06:11:28.605Z,13.17
2024-02-26T06:13:55.543Z,16.57
2024-02-26T06:16:22.399Z,12.27
2024-02-26T06:18:49.452Z,12.53
2024-02-26T06:21:16.408Z,13.03
2024-02-26T06:23:43.394Z,14.13
2024-02-26T06:26:11.475Z,13.10
2024-02-26T06:28:41.585Z,17.47
2024-02-26T06:31:08.642Z,13.00
2024-02-26T06:33:35.812Z,12.03
2024-02-26T06:36:02.907Z,11.93
2024-02-26T06:38:29.779Z,13.97
2024-02-26T06:40:56.932Z,11.57
2024-02-26T06:43:23.846Z,13.43
2024-02-26T06:45:50.791Z,14.23
2024-02-26T06:48:18.118Z,14.87
2024-02-26T06:50:45.126Z,14.17
2024-02-26T06:53:12.024Z,13.40
2024-02-26T06:55:41.333Z,15.03
2024-02-26T06:58:08.263Z,13.40
2024-02-26T07:00:35.402Z,14.67
2024-02-26T07:03:02.421Z,14.27
2024-02-26T07:05:29.785Z,14.87
2024-02-26T07:07:56.669Z,13.93
2024-02-26T07:10:23.509Z,12.33
2024-02-26T07:12:50.439Z,17.93
2024-02-26T07:15:17.504Z,13.47
2024-02-26T07:17:48.481Z,14.70
2024-02-26T07:20:15.695Z,14.87
2024-02-26T07:22:43.780Z,12.47
2024-02-26T07:25:14.511Z,14.67
2024-02-26T07:27:41.707Z,13.03
2024-02-26T07:30:10.539Z,13.73
2024-02-26T07:32:37.647Z,15.07
2024-02-26T07:35:05.297Z,15.00
2024-02-26T07:37:32.382Z,11.40
2024-02-26T07:39:59.255Z,13.63
2024-02-26T07:42:26.248Z,12.97
2024-02-26T07:44:53.792Z,12.60
2024-02-26T07:47:21.072Z,14.20
2024-02-26T07:49:48.207Z,12.87
2024-02-26T07:52:15.127Z,14.90
2024-02-26T07:54:42.045Z,14.23
2024-02-26T07:57:09.089Z,12.73
2024-02-26T07:59:35.947Z,11.00
2024-02-26T08:02:04.285Z,11.27
2024-02-26T08:04:31.984Z,11.37
2024-02-26T08:06:59.025Z,11.53
2024-02-26T08:09:26.037Z,10.10
2024-02-26T08:11:53.079Z,12.23
2024-02-26T08:14:20.019Z,10.20
2024-02-26T08:16:46.947Z,9.67
2024-02-26T08:19:16.271Z,9.33
2024-02-26T08:21:43.662Z,9.13
2024-02-26T08:24:10.993Z,9.37
2024-02-26T08:26:37.957Z,10.17
2024-02-26T08:29:04.878Z,10.43
2024-02-26T08:31:31.775Z,9.73
2024-02-26T08:34:00.451Z,11.13
2024-02-26T08:36:27.767Z,12.13
2024-02-26T08:38:54.714Z,9.53
2024-02-26T08:41:21.678Z,9.77
2024-02-26T08:43:48.609Z,9.67
2024-02-26T08:46:15.615Z,9.23
2024-02-26T08:48:42.851Z,9.30
2024-02-26T08:51:10.469Z,9.03
2024-02-26T08:53:42.623Z,11.10
2024-02-26T08:56:18.780Z,9.90
2024-02-26T08:58:49.722Z,8.47
2024-02-26T09:01:17.419Z,8.60
2024-02-26T09:03:44.501Z,9.03
2024-02-26T09:06:12.993Z,7.97
2024-02-26T09:08:39.985Z,8.77
2024-02-26T09:11:06.893Z,9.60
2024-02-26T09:13:33.915Z,10.03
2024-02-26T09:16:01.713Z,10.50
2024-02-26T09:18:30.138Z,9.33
2024-02-26T09:20:57.377Z,9.67
2024-02-26T09:23:24.275Z,8.67
2024-02-26T09:25:51.193Z,9.40
2024-02-26T09:28:18.419Z,10.03
2024-02-26T09:30:46.102Z,9.90
2024-02-26T09:33:15.141Z,8.47
2024-02-26T09:35:42.645Z,8.27
2024-02-26T09:38:09.889Z,9.37
2024-02-26T09:40:38.909Z,9.83
2024-02-26T09:43:06.811Z,8.00
2024-02-26T09:45:35.830Z,8.40
2024-02-26T09:48:06.237Z,8.07
2024-02-26T09:50:33.174Z,9.20
2024-02-26T09:53:03.727Z,9.50
2024-02-26T09:55:30.806Z,8.07
2024-02-26T09:57:58.987Z,8.57
2024-02-26T10:00:31.234Z,7.07
2024-02-26T10:02:59.929Z,7.33
2024-02-26T10:05:28.056Z,7.47
2024-02-26T10:07:56.950Z,6.03
2024-02-26T10:10:23.808Z,5.60
2024-02-26T10:12:51.228Z,6.57
2024-02-26T10:15:18.239Z,6.57
2024-02-26T10:17:45.305Z,5.40
2024-02-26T10:20:25.131Z,5.43
2024-02-26T10:22:53.419Z,4.80
2024-02-26T10:25:20.627Z,4.10
2024-02-26T10:27:48.707Z,4.93
2024-02-26T10:30:20.511Z,4.10
2024-02-26T10:32:48.995Z,6.70
2024-02-26T10:35:18.724Z,6.63
2024-02-26T10:37:46.136Z,7.83
2024-02-26T10:40:17.185Z,4.60
2024-02-26T10:42:46.121Z,5.77
2024-02-26T10:45:14.280Z,5.37
2024-02-26T10:47:43.582Z,3.73
2024-02-26T10:50:11.275Z,4.70
2024-02-26T10:52:38.635Z,4.33
2024-02-26T10:55:10.620Z,4.80
2024-02-26T10:57:43.281Z,3.43
2024-02-26T11:00:15.558Z,4.20
2024-02-26T11:02:43.147Z,5.20
2024-02-26T11:05:10.424Z,3.93
2024-02-26T11:07:39.230Z,3.13
2024-02-26T11:10:07.669Z,3.87
2024-02-26T11:12:39.409Z,4.53
2024-02-26T11:15:07.576Z,4.07
2024-02-26T11:17:35.867Z,4.17
2024-02-26T11:20:06.909Z,2.87
2024-02-26T11:22:34.632Z,3.17
2024-02-26T11:25:02.321Z,2.83
2024-02-26T11:27:38.516Z,3.47
2024-02-26T11:30:10.601Z,2.90
2024-02-26T11:32:38.469Z,3.00
2024-02-26T11:35:08.456Z,3.27
2024-02-26T11:37:39.454Z,2.53
2024-02-26T11:40:19.451Z,3.60
2024-02-26T11:42:46.979Z,4.30
2024-02-26T11:45:47.535Z,2.87
2024-02-26T11:48:15.619Z,4.20
2024-02-26T11:50:51.556Z,3.60
2024-02-26T11:53:32.975Z,2.90
2024-02-26T11:56:28.036Z,3.20
2024-02-26T11:59:14.127Z,2.73
2024-02-26T12:01:42.833Z,3.50
2024-02-26T12:04:22.703Z,2.50
2024-02-26T12:06:57.806Z,2.87
2024-02-26T12:09:39.514Z,3.07
2024-02-26T12:12:19.216Z,2.57
2024-02-26T12:14:55.136Z,2.90
2024-02-26T12:17:26.990Z,2.40
2024-02-26T12:19:55.214Z,2.80
2024-02-26T12:22:22.424Z,2.90
2024-02-26T12:24:59.550Z,2.63
2024-02-26T12:27:26.506Z,4.60
2024-02-26T12:29:54.636Z,2.47
2024-02-26T12:32:21.641Z,2.50
2024-02-26T12:34:49.140Z,3.13
2024-02-26T12:37:16.797Z,2.43
2024-02-26T12:39:43.949Z,1.90
2024-02-26T12:42:11.012Z,1.83
2024-02-26T12:44:39.127Z,2.10
2024-02-26T12:47:06.448Z,1.87
2024-02-26T12:49:33.760Z,3.70
2024-02-26T12:52:03.837Z,1.77
2024-02-26T12:54:35.856Z,5.90
2024-02-26T12:57:04.561Z,3.00
2024-02-26T12:59:32.328Z,2.40
2024-02-26T13:01:59.464Z,2.47
2024-02-26T13:04:32.096Z,3.00
2024-02-26T13:07:04.688Z,4.57
2024-02-26T13:09:36.717Z,3.63
2024-02-26T13:12:09.441Z,7.30
2024-02-26T13:14:36.807Z,4.83
2024-02-26T13:17:05.315Z,4.53
2024-02-26T13:19:32.798Z,4.67
2024-02-26T13:22:08.099Z,4.10
2024-02-26T13:24:36.463Z,3.67
2024-02-26T13:27:06.313Z,3.30
2024-02-26T13:29:33.265Z,5.03
2024-02-26T13:32:00.432Z,2.97
2024-02-26T13:34:32.189Z,2.87
2024-02-26T13:36:59.353Z,3.13
2024-02-26T13:39:28.832Z,2.10
2024-02-26T13:41:56.396Z,3.23
2024-02-26T13:44:25.308Z,2.57
2024-02-26T13:46:52.193Z,2.10
2024-02-26T13:49:19.284Z,2.93
2024-02-26T13:51:46.340Z,2.87
2024-02-26T13:54:15.137Z,3.97
2024-02-26T13:56:44.489Z,2.17
2024-02-26T13:59:12.619Z,1.97
2024-02-26T14:01:39.687Z,1.93
2024-02-26T14:04:06.808Z,1.97
2024-02-26T14:06:34.400Z,1.90
2024-02-26T14:09:01.402Z,1.73
2024-02-26T14:11:30.305Z,1.60
2024-02-26T14:13:57.357Z,2.37
2024-02-26T14:16:24.303Z,3.90
2024-02-26T14:18:51.368Z,1.77
2024-02-26T14:21:18.478Z,2.17
2024-02-26T14:23:45.709Z,3.23
2024-02-26T14:26:13.213Z,1.93
2024-02-26T14:28:40.099Z,2.20
2024-02-26T14:31:10.822Z,1.50
2024-02-26T14:33:43.383Z,1.53
2024-02-26T14:36:10.906Z,1.90
2024-02-26T14:38:37.866Z,2.53
2024-02-26T14:41:04.974Z,1.63
2024-02-26T14:43:33.123Z,2.07
2024-02-26T14:46:00.584Z,2.27
2024-02-26T14:48:27.864Z,1.60
2024-02-26T14:50:54.987Z,2.40
2024-02-26T14:53:21.964Z,1.37
2024-02-26T14:55:48.837Z,1.50
2024-02-26T14:58:17.296Z,1.93
2024-02-26T15:00:44.578Z,2.57
2024-02-26T15:03:11.683Z,3.13
2024-02-26T15:05:38.641Z,1.30
2024-02-26T15:08:06.780Z,3.00
2024-02-26T15:10:33.697Z,1.30
2024-02-26T15:13:00.561Z,2.03
2024-02-26T15:15:28.305Z,2.53
2024-02-26T15:17:55.299Z,1.67
2024-02-26T15:20:23.635Z,1.40
2024-02-26T15:22:50.527Z,1.60
2024-02-26T15:25:17.645Z,1.20
2024-02-26T15:27:44.675Z,1.03
2024-02-26T15:30:12.402Z,1.40
2024-02-26T15:32:39.413Z,1.90
2024-02-26T15:35:07.836Z,1.27
2024-02-26T15:37:34.930Z,1.70
2024-02-26T15:40:01.861Z,1.87
2024-02-26T15:42:28.826Z,1.50
2024-02-26T15:44:56.230Z,2.27
2024-02-26T15:47:23.242Z,2.27
2024-02-26T15:49:50.242Z,2.73
2024-02-26T15:52:17.165Z,2.37
2024-02-26T15:54:44.268Z,2.03
2024-02-26T15:57:13.437Z,3.27
2024-02-26T15:59:40.490Z,3.40
2024-02-26T16:02:07.433Z,3.27
2024-02-26T16:04:34.904Z,2.47
2024-02-26T16:07:11.520Z,3.17
2024-02-26T16:09:38.519Z,2.60
2024-02-26T16:12:25.163Z,2.80
2024-02-26T16:14:53.484Z,10.13
2024-02-26T16:17:37.117Z,3.70
2024-02-26T16:20:05.413Z,5.70
2024-02-26T16:22:37.265Z,9.57
2024-02-26T16:25:05.267Z,12.73
2024-02-26T16:27:32.190Z,5.83
2024-02-26T16:29:59.223Z,4.93
2024-02-26T16:32:26.278Z,4.67
2024-02-26T16:34:53.234Z,4.70
2024-02-26T16:37:20.819Z,5.40
2024-02-26T16:39:47.772Z,6.07
2024-02-26T16:42:15.069Z,5.27
2024-02-26T16:44:42.138Z,4.40
2024-02-26T16:47:09.075Z,4.53
2024-02-26T16:49:36.787Z,4.70
2024-02-26T16:52:04.349Z,4.97
2024-02-26T16:54:31.479Z,5.97
2024-02-26T16:56:58.596Z,4.07
2024-02-26T16:59:29.363Z,7.07
2024-02-26T17:01:56.987Z,5.97
2024-02-26T17:04:24.512Z,5.57
2024-02-26T17:06:54.274Z,4.00
2024-02-26T17:09:22.327Z,4.57
2024-02-26T17:11:49.569Z,3.93
2024-02-26T17:14:17.128Z,3.17
2024-02-26T17:16:44.141Z,3.00
2024-02-26T17:19:11.468Z,3.10
2024-02-26T17:21:38.730Z,4.03
2024-02-26T17:24:06.210Z,4.73
2024-02-26T17:26:33.242Z,3.27
2024-02-26T17:29:03.393Z,3.00
2024-02-26T17:31:38.322Z,3.93
2024-02-26T17:34:05.320Z,2.90
2024-02-26T17:36:32.381Z,3.47
2024-02-26T17:38:59.306Z,3.20
2024-02-26T17:41:26.546Z,3.30
2024-02-26T17:43:53.433Z,2.70
2024-02-26T17:46:20.498Z,4.73
2024-02-26T17:48:47.608Z,2.73
2024-02-26T17:51:14.792Z,4.43
2024-02-26T17:53:41.797Z,4.53
2024-02-26T17:56:08.952Z,4.60
2024-02-26T17:58:41.830Z,2.53
2024-02-26T18:01:11.681Z,3.10
2024-02-26T18:03:38.864Z,3.73
2024-02-26T18:06:06.217Z,3.00
2024-02-26T18:08:34.979Z,3.30
2024-02-26T18:11:02.239Z,2.93
2024-02-26T18:13:29.186Z,4.80
2024-02-26T18:15:58.366Z,3.53
2024-02-26T18:18:26.854Z,2.70
2024-02-26T18:20:54.010Z,2.40
2024-02-26T18:23:21.012Z,2.67
2024-02-26T18:25:48.019Z,3.20
2024-02-26T18:28:17.004Z,2.57
2024-02-26T18:30:46.721Z,2.90
2024-02-26T18:33:14.165Z,2.73
2024-02-26T18:35:41.252Z,2.83
2024-02-26T18:38:08.509Z,2.90
2024-02-26T18:40:35.603Z,3.97
2024-02-26T18:43:05.350Z,2.07
2024-02-26T18:45:33.082Z,2.97
2024-02-26T18:48:00.279Z,2.27
2024-02-26T18:50:27.279Z,2.67
2024-02-26T18:52:54.697Z,3.83
2024-02-26T18:55:21.755Z,3.53
2024-02-26T18:57:48.719Z,3.77
2024-02-26T19:00:16.204Z,3.97
2024-02-26T19:02:43.198Z,3.33
2024-02-26T19:05:10.393Z,3.97
2024-02-26T19:07:37.394Z,3.00
2024-02-26T19:10:04.663Z,3.20
2024-02-26T19:12:31.693Z,3.70
2024-02-26T19:14:58.717Z,4.30
2024-02-26T19:17:25.676Z,3.13
2024-02-26T19:19:52.629Z,3.23
2024-02-26T19:22:19.547Z,3.63
2024-02-26T19:24:46.513Z,3.93
2024-02-26T19:27:14.337Z,2.90
2024-02-26T19:29:41.326Z,2.97
2024-02-26T19:32:12.069Z,5.53
2024-02-26T19:34:39.527Z,3.40
2024-02-26T19:37:06.763Z,3.33
2024-02-26T19:39:33.799Z,3.20
2024-02-26T19:42:00.842Z,4.87
2024-02-26T19:44:27.780Z,4.07
2024-02-26T19:46:54.779Z,5.00
2024-02-26T19:49:22.557Z,3.67
2024-02-26T19:51:50.244Z,4.03
2024-02-26T19:54:17.382Z,4.60
2024-02-26T19:56:45.822Z,8.33
2024-02-26T19:59:12.828Z,8.17
2024-02-26T20:01:40.024Z,5.30
2024-02-26T20:04:12.122Z,3.77
2024-02-26T20:06:41.740Z,4.20
2024-02-26T20:09:09.455Z,4.73
2024-02-26T20:11:41.922Z,6.50
2024-02-26T20:14:13.291Z,4.47
2024-02-26T20:16:40.542Z,3.00
2024-02-26T20:19:12.588Z,3.53
2024-02-26T20:21:41.046Z,7.10
2024-02-26T20:24:08.983Z,4.73
2024-02-26T20:26:40.457Z,4.50
2024-02-26T20:29:07.605Z,3.83
2024-02-26T20:31:34.587Z,4.80
2024-02-26T20:34:02.343Z,5.50
2024-02-26T20:36:32.142Z,4.53
2024-02-26T20:38:59.070Z,3.53
2024-02-26T20:41:26.317Z,4.10
2024-02-26T20:43:53.651Z,4.00
2024-02-26T20:46:21.131Z,3.70
2024-02-26T20:48:48.211Z,5.70
2024-02-26T20:51:15.580Z,5.27
2024-02-26T20:53:42.795Z,5.07
2024-02-26T20:56:09.783Z,6.33
2024-02-26T20:58:37.144Z,4.63
2024-02-26T21:01:04.778Z,5.30
2024-02-26T21:03:31.839Z,5.07
2024-02-26T21:05:58.804Z,5.03
2024-02-26T21:08:32.983Z,5.13
2024-02-26T21:11:06.041Z,4.47
2024-02-26T21:13:33.694Z,5.10
2024-02-26T21:16:01.804Z,5.03
2024-02-26T21:18:28.881Z,6.97
2024-02-26T21:20:58.088Z,4.97
2024-02-26T21:23:26.152Z,6.27
2024-02-26T21:25:53.078Z,6.30
2024-02-26T21:28:20.024Z,6.17
2024-02-26T21:30:47.224Z,8.50
2024-02-26T21:33:14.309Z,7.33
2024-02-26T21:35:41.787Z,6.43
2024-02-26T21:38:10.402Z,7.07
2024-02-26T21:40:38.062Z,7.07
2024-02-26T21:43:04.995Z,6.77
2024-02-26T21:45:32.268Z,5.93
2024-02-26T21:47:59.343Z,7.37
2024-02-26T21:50:26.279Z,8.20
2024-02-26T21:52:53.192Z,6.63
2024-02-26T21:55:20.678Z,6.80
2024-02-26T21:57:47.671Z,8.57
2024-02-26T22:00:15.206Z,6.93
2024-02-26T22:02:42.632Z,7.43
2024-02-26T22:05:09.964Z,6.37
2024-02-26T22:07:37.372Z,7.77
2024-02-26T22:10:05.211Z,7.50
2024-02-26T22:12:32.267Z,10.23
2024-02-26T22:14:59.192Z,6.93
2024-02-26T22:17:26.169Z,7.13
2024-02-26T22:19:53.182Z,8.70
2024-02-26T22:22:20.938Z,7.40
2024-02-26T22:24:47.806Z,9.50
2024-02-26T22:27:14.742Z,8.30
2024-02-26T22:29:41.596Z,7.10
2024-02-26T22:32:08.598Z,8.60
2024-02-26T22:34:35.666Z,8.87
2024-02-26T22:37:02.605Z,9.90
2024-02-26T22:39:29.583Z,7.80
2024-02-26T22:41:56.528Z,9.43
2024-02-26T22:44:23.694Z,8.53
2024-02-26T22:46:50.629Z,8.47
2024-02-26T22:49:17.581Z,10.63
2024-02-26T22:51:44.586Z,10.50
2024-02-26T22:54:11.613Z,8.33
2024-02-26T22:56:38.557Z,10.23
2024-02-26T22:59:06.012Z,8.13
2024-02-26T23:01:33.719Z,7.97
2024-02-26T23:04:00.841Z,9.13
2024-02-26T23:06:27.786Z,7.80
2024-02-26T23:08:54.795Z,8.63
2024-02-26T23:11:21.707Z,10.53
2024-02-26T23:13:48.950Z,8.20
2024-02-26T23:16:15.900Z,8.20
2024-02-26T23:18:42.884Z,10.43
2024-02-26T23:21:09.838Z,9.63
2024-02-26T23:23:38.022Z,9.97
2024-02-26T23:26:05.038Z,8.60
2024-02-26T23:28:32.321Z,10.90
2024-02-26T23:30:59.198Z,9.90
2024-02-26T23:33:26.174Z,9.67
2024-02-26T23:35:53.256Z,8.87
2024-02-26T23:38:20.300Z,9.53
2024-02-26T23:40:47.725Z,8.77
2024-02-26T23:43:14.850Z,9.47
2024-02-26T23:45:42.152Z,11.10
2024-02-26T23:48:09.315Z,9.87
2024-02-26T23:50:36.464Z,11.33
2024-02-26T23:53:05.351Z,10.63
2024-02-26T23:55:33.162Z,10.03
2024-02-26T23:58:00.549Z,9.87
